createdAt,value
2018-09-02T00:00:32.887Z,5.17
2018-09-02T00:03:02.069Z,5.17
2018-09-02T00:05:30.339Z,4.97
2018-09-02T00:07:59.142Z,8.23
2018-09-02T00:10:27.829Z,9.50
2018-09-02T00:12:56.114Z,6.53
2018-09-02T00:15:24.412Z,6.73
2018-09-02T00:17:52.668Z,5.73
2018-09-02T00:20:21.047Z,5.83
2018-09-02T00:22:49.474Z,6.30
2018-09-02T00:25:18.109Z,7.05
2018-09-02T00:27:46.405Z,8.20
2018-09-02T00:30:14.799Z,7.20
2018-09-02T00:32:43.171Z,7.70
2018-09-02T00:35:11.465Z,9.20
2018-09-02T00:37:39.824Z,8.13
2018-09-02T00:40:08.531Z,5.53
2018-09-02T00:42:36.791Z,8.17
2018-09-02T00:45:05.184Z,5.57
2018-09-02T00:47:33.443Z,7.10
2018-09-02T00:50:01.727Z,7.80
2018-09-02T00:52:30.213Z,6.73
2018-09-02T00:54:59.098Z,7.37
2018-09-02T00:57:27.310Z,5.53
2018-09-02T00:59:55.642Z,7.50
2018-09-02T01:02:24.937Z,7.50
2018-09-02T01:04:53.439Z,6.73
2018-09-02T01:07:21.915Z,6.60
2018-09-02T01:09:50.310Z,7.97
2018-09-02T01:12:18.598Z,8.43
2018-09-02T01:14:46.976Z,6.03
2018-09-02T01:17:15.995Z,6.60
2018-09-02T01:19:44.301Z,6.77
2018-09-02T01:22:12.909Z,7.30
2018-09-02T01:24:41.286Z,8.80
2018-09-02T01:27:09.549Z,6.20
2018-09-02T01:29:37.858Z,6.77
2018-09-02T01:32:06.128Z,7.30
2018-09-02T01:34:34.504Z,6.63
2018-09-02T01:37:02.892Z,6.13
2018-09-02T01:39:31.137Z,7.40
2018-09-02T01:41:59.407Z,10.17
2018-09-02T01:44:28.247Z,6.87
2018-09-02T01:46:56.594Z,8.50
2018-09-02T01:49:24.925Z,5.83
2018-09-02T01:51:53.384Z,9.20
2018-09-02T01:54:22.232Z,6.67
2018-09-02T01:56:50.497Z,7.80
2018-09-02T01:59:18.777Z,7.17
2018-09-02T02:01:47.105Z,6.87
2018-09-02T02:04:15.367Z,9.18
2018-09-02T02:06:43.747Z,8.23
2018-09-02T02:09:12.365Z,5.40
2018-09-02T02:11:40.611Z,6.80
2018-09-02T02:14:08.876Z,6.00
2018-09-02T02:16:37.223Z,7.33
2018-09-02T02:19:05.475Z,6.10
2018-09-02T02:21:33.819Z,10.17
2018-09-02T02:24:02.101Z,6.50
2018-09-02T02:26:30.406Z,7.30
2018-09-02T02:28:58.676Z,6.83
2018-09-02T02:31:26.920Z,8.13
2018-09-02T02:33:55.200Z,9.20
2018-09-02T02:36:23.494Z,7.27
2018-09-02T02:38:51.829Z,8.13
2018-09-02T02:41:20.229Z,7.13
2018-09-02T02:43:48.484Z,8.00
2018-09-02T02:46:16.793Z,6.90
2018-09-02T02:48:45.030Z,6.80
2018-09-02T02:51:13.269Z,7.20
2018-09-02T02:53:41.530Z,6.90
2018-09-02T02:56:09.779Z,9.43
2018-09-02T02:58:38.097Z,8.53
2018-09-02T03:01:06.362Z,8.23
2018-09-02T03:03:34.720Z,9.70
2018-09-02T03:06:03.214Z,7.43
2018-09-02T03:08:31.477Z,7.43
2018-09-02T03:10:59.743Z,8.23
2018-09-02T03:13:28.010Z,9.83
2018-09-02T03:15:56.262Z,8.17
2018-09-02T03:18:24.501Z,9.70
2018-09-02T03:20:52.760Z,7.53
2018-09-02T03:23:21.050Z,8.90
2018-09-02T03:25:49.340Z,6.47
2018-09-02T03:28:17.600Z,8.63
2018-09-02T03:30:45.984Z,8.37
2018-09-02T03:33:14.277Z,9.35
2018-09-02T03:35:42.663Z,8.40
2018-09-02T03:38:11.752Z,7.33
2018-09-02T03:40:40.104Z,9.13
2018-09-02T03:43:08.396Z,8.57
2018-09-02T03:45:36.668Z,9.40
2018-09-02T03:48:05.110Z,7.50
2018-09-02T03:50:33.435Z,8.85
2018-09-02T03:53:01.825Z,7.67
2018-09-02T03:55:30.171Z,9.27
2018-09-02T03:57:58.434Z,10.63
2018-09-02T04:00:26.741Z,7.83
2018-09-02T04:02:55.043Z,7.63
2018-09-02T04:05:23.279Z,8.80
2018-09-02T04:07:51.555Z,9.78
2018-09-02T04:10:19.913Z,8.13
2018-09-02T04:12:48.231Z,7.80
2018-09-02T04:15:16.508Z,7.50
2018-09-02T04:17:44.826Z,8.87
2018-09-02T04:20:13.186Z,8.23
2018-09-02T04:22:41.445Z,8.63
2018-09-02T04:25:09.700Z,9.67
2018-09-02T04:27:37.974Z,9.13
2018-09-02T04:30:06.511Z,8.20
2018-09-02T04:32:34.719Z,7.77
2018-09-02T04:35:03.001Z,9.83
2018-09-02T04:37:31.248Z,9.00
2018-09-02T04:39:59.575Z,7.97
2018-09-02T04:42:27.925Z,10.47
2018-09-02T04:44:56.199Z,9.63
2018-09-02T04:47:24.577Z,8.85
2018-09-02T04:49:52.857Z,8.37
2018-09-02T04:52:21.109Z,9.85
2018-09-02T04:54:49.486Z,8.80
2018-09-02T04:57:17.867Z,11.83
2018-09-02T04:59:46.346Z,8.70
2018-09-02T05:02:14.634Z,11.17
2018-09-02T05:04:43.049Z,10.87
2018-09-02T05:07:11.602Z,10.48
2018-09-02T05:09:39.884Z,8.57
2018-09-02T05:12:08.229Z,10.27
2018-09-02T05:14:36.542Z,12.53
2018-09-02T05:17:05.072Z,10.67
2018-09-02T05:19:33.384Z,10.80
2018-09-02T05:22:01.697Z,9.87
2018-09-02T05:24:30.049Z,10.80
2018-09-02T05:26:58.418Z,10.80
2018-09-02T05:29:26.879Z,9.93
2018-09-02T05:31:55.151Z,10.63
2018-09-02T05:34:23.440Z,11.43
2018-09-02T05:36:51.853Z,11.03
2018-09-02T05:39:20.140Z,8.40
2018-09-02T05:41:48.436Z,11.00
2018-09-02T05:44:16.930Z,13.23
2018-09-02T05:46:45.249Z,12.87
2018-09-02T05:49:13.537Z,10.93
2018-09-02T05:51:41.835Z,11.27
2018-09-02T05:54:10.140Z,11.40
2018-09-02T05:56:38.464Z,10.57
2018-09-02T05:59:06.844Z,11.17
2018-09-02T06:01:35.210Z,11.90
2018-09-02T06:04:04.320Z,12.07
2018-09-02T06:06:32.753Z,11.10
2018-09-02T06:09:01.206Z,11.73
2018-09-02T06:11:29.567Z,11.93
2018-09-02T06:13:57.937Z,11.33
2018-09-02T06:16:26.402Z,11.60
2018-09-02T06:18:54.684Z,10.67
2018-09-02T06:21:22.997Z,12.27
2018-09-02T06:23:51.342Z,12.10
2018-09-02T06:26:19.737Z,13.10
2018-09-02T06:28:48.198Z,12.00
2018-09-02T06:31:16.606Z,12.17
2018-09-02T06:33:45.106Z,11.37
2018-09-02T06:36:13.441Z,12.20
2018-09-02T06:38:41.836Z,13.40
2018-09-02T06:41:10.247Z,14.47
2018-09-02T06:43:39.216Z,12.87
2018-09-02T06:46:07.593Z,12.10
2018-09-02T06:48:35.952Z,11.90
2018-09-02T06:51:04.914Z,12.13
2018-09-02T06:53:33.244Z,12.00
2018-09-02T06:56:01.684Z,12.50
2018-09-02T06:58:30.139Z,11.00
2018-09-02T07:00:58.456Z,11.53
2018-09-02T07:03:26.790Z,11.53
2018-09-02T07:05:55.151Z,11.97
2018-09-02T07:08:23.437Z,12.03
2018-09-02T07:10:51.896Z,10.53
2018-09-02T07:13:20.320Z,10.00
2018-09-02T07:15:48.665Z,11.43
2018-09-02T07:18:16.938Z,11.33
2018-09-02T07:20:45.225Z,10.63
2018-09-02T07:23:13.557Z,10.47
2018-09-02T07:25:41.891Z,10.40
2018-09-02T07:28:10.162Z,9.25
2018-09-02T07:30:38.482Z,11.17
2018-09-02T07:33:06.972Z,12.30
2018-09-02T07:35:35.460Z,11.27
2018-09-02T07:38:03.792Z,10.50
2018-09-02T07:40:32.411Z,12.43
2018-09-02T07:43:00.847Z,10.90
2018-09-02T07:45:29.336Z,9.80
2018-09-02T07:47:57.650Z,10.30
2018-09-02T07:50:25.928Z,10.40
2018-09-02T07:52:54.272Z,11.87
2018-09-02T07:55:22.740Z,10.30
2018-09-02T07:57:51.051Z,10.90
2018-09-02T08:00:19.348Z,10.70
2018-09-02T08:02:47.848Z,9.50
2018-09-02T08:05:16.110Z,10.30
2018-09-02T08:07:44.602Z,11.37
2018-09-02T08:10:12.917Z,10.13
2018-09-02T08:12:41.387Z,12.60
2018-09-02T08:15:09.721Z,10.50
2018-09-02T08:17:38.153Z,9.73
2018-09-02T08:20:06.631Z,9.97
2018-09-02T08:22:35.769Z,9.73
2018-09-02T08:25:04.901Z,9.05
2018-09-02T08:27:33.639Z,8.90
2018-09-02T08:30:02.080Z,9.40
2018-09-02T08:32:30.377Z,10.50
2018-09-02T08:34:58.745Z,13.80
2018-09-02T08:37:27.040Z,8.70
2018-09-02T08:39:55.513Z,9.10
2018-09-02T08:42:23.939Z,8.93
2018-09-02T08:44:52.241Z,9.57
2018-09-02T08:47:20.831Z,8.83
2018-09-02T08:49:49.122Z,9.83
2018-09-02T08:52:17.412Z,8.70
2018-09-02T08:54:45.797Z,8.83
2018-09-02T08:57:14.163Z,7.40
2018-09-02T08:59:42.655Z,8.30
2018-09-02T09:02:10.989Z,9.17
2018-09-02T09:04:39.302Z,11.80
2018-09-02T09:07:07.628Z,7.43
2018-09-02T09:09:35.992Z,8.43
2018-09-02T09:12:04.851Z,8.10
2018-09-02T09:14:33.234Z,10.40
2018-09-02T09:17:01.650Z,6.40
2018-09-02T09:19:29.978Z,6.80
2018-09-02T09:21:58.507Z,6.63
2018-09-02T09:24:26.780Z,7.37
2018-09-02T09:26:55.156Z,5.47
2018-09-02T09:29:23.533Z,6.53
2018-09-02T09:31:51.929Z,6.27
2018-09-02T09:34:20.372Z,6.28
2018-09-02T09:36:48.689Z,7.03
2018-09-02T09:39:16.957Z,5.60
2018-09-02T09:41:45.421Z,5.63
2018-09-02T09:44:13.676Z,4.63
2018-09-02T09:46:42.144Z,4.17
2018-09-02T09:49:10.996Z,3.80
2018-09-02T09:51:39.375Z,4.20
2018-09-02T09:54:07.697Z,3.77
2018-09-02T09:56:35.991Z,3.43
2018-09-02T09:59:04.890Z,4.50
2018-09-02T10:01:33.329Z,4.47
2018-09-02T10:04:01.673Z,5.50
2018-09-02T10:06:30.034Z,4.05
2018-09-02T10:08:58.494Z,4.03
2018-09-02T10:11:26.876Z,3.50
2018-09-02T10:13:55.156Z,5.57
2018-09-02T10:16:23.519Z,3.30
2018-09-02T10:18:51.860Z,5.57
2018-09-02T10:21:20.329Z,3.80
2018-09-02T10:23:48.658Z,3.60
2018-09-02T10:26:17.093Z,6.78
2018-09-02T10:28:45.522Z,3.43
2018-09-02T10:31:13.965Z,4.97
2018-09-02T10:33:42.501Z,4.97
2018-09-02T10:36:10.836Z,3.80
2018-09-02T10:38:39.279Z,4.33
2018-09-02T10:41:07.786Z,4.77
2018-09-02T10:43:36.233Z,4.33
2018-09-02T10:46:05.082Z,3.73
2018-09-02T10:48:33.519Z,4.87
2018-09-02T10:51:06.934Z,4.80
2018-09-02T10:53:36.036Z,5.47
2018-09-02T10:56:05.070Z,5.07
2018-09-02T10:58:33.484Z,5.17
2018-09-02T11:01:01.958Z,6.00
2018-09-02T11:03:30.321Z,4.37
2018-09-02T11:05:58.621Z,4.07
2018-09-02T11:08:27.605Z,3.20
2018-09-02T11:10:55.955Z,3.20
2018-09-02T11:13:24.894Z,6.07
2018-09-02T11:15:53.306Z,3.77
2018-09-02T11:18:22.027Z,3.12
2018-09-02T11:20:50.504Z,4.53
2018-09-02T11:23:19.387Z,4.40
2018-09-02T11:25:47.779Z,4.10
2018-09-02T11:28:16.383Z,5.20
2018-09-02T11:30:44.846Z,4.93
2018-09-02T11:33:13.228Z,5.20
2018-09-02T11:35:41.596Z,4.70
2018-09-02T11:38:10.226Z,3.72
2018-09-02T11:40:38.727Z,3.80
2018-09-02T11:43:07.149Z,4.67
2018-09-02T11:45:35.560Z,4.77
2018-09-02T11:48:03.871Z,4.23
2018-09-02T11:50:32.171Z,5.33
2018-09-02T11:53:00.532Z,4.10
2018-09-02T11:55:28.838Z,4.13
2018-09-02T11:57:57.148Z,3.20
2018-09-02T12:00:25.585Z,4.23
2018-09-02T12:02:53.985Z,4.23
2018-09-02T12:05:22.421Z,4.83
2018-09-02T12:07:50.880Z,3.53
2018-09-02T12:10:19.216Z,4.00
2018-09-02T12:12:47.548Z,4.60
2018-09-02T12:15:16.016Z,4.53
2018-09-02T12:17:44.459Z,4.00
2018-09-02T12:20:13.071Z,4.97
2018-09-02T12:22:41.500Z,3.40
2018-09-02T12:25:09.910Z,4.37
2018-09-02T12:27:38.229Z,4.03
2018-09-02T12:30:06.522Z,3.83
2018-09-02T12:32:35.000Z,4.37
2018-09-02T12:35:03.349Z,3.60
2018-09-02T12:37:31.739Z,5.13
2018-09-02T12:40:00.057Z,4.33
2018-09-02T12:42:28.526Z,3.43
2018-09-02T12:44:57.436Z,5.43
2018-09-02T12:47:25.788Z,3.97
2018-09-02T12:49:54.128Z,3.57
2018-09-02T12:52:22.513Z,3.50
2018-09-02T12:54:51.076Z,3.30
2018-09-02T12:57:19.503Z,4.70
2018-09-02T12:59:47.899Z,4.87
2018-09-02T13:02:16.249Z,3.93
2018-09-02T13:04:44.604Z,3.23
2018-09-02T13:07:12.898Z,3.50
2018-09-02T13:09:41.196Z,3.70
2018-09-02T13:12:09.536Z,5.40
2018-09-02T13:14:37.888Z,4.03
2018-09-02T13:17:06.345Z,4.50
2018-09-02T13:19:34.702Z,5.57
2018-09-02T13:22:03.074Z,3.50
2018-09-02T13:24:31.500Z,3.33
2018-09-02T13:26:59.807Z,3.83
2018-09-02T13:29:28.203Z,6.90
2018-09-02T13:31:56.662Z,4.47
2018-09-02T13:34:24.909Z,4.60
2018-09-02T13:36:53.225Z,3.30
2018-09-02T13:39:21.535Z,5.30
2018-09-02T13:41:49.884Z,3.12
2018-09-02T13:44:18.155Z,3.10
2018-09-02T13:46:46.518Z,4.10
2018-09-02T13:49:14.844Z,3.13
2018-09-02T13:51:43.204Z,3.60
2018-09-02T13:54:11.604Z,3.20
2018-09-02T13:56:39.977Z,3.40
2018-09-02T13:59:08.292Z,3.13
2018-09-02T14:01:36.607Z,3.23
2018-09-02T14:04:05.498Z,3.03
2018-09-02T14:06:33.820Z,3.50
2018-09-02T14:09:02.178Z,5.43
2018-09-02T14:11:30.478Z,3.23
2018-09-02T14:13:58.837Z,4.57
2018-09-02T14:16:27.274Z,3.57
2018-09-02T14:18:55.628Z,3.10
2018-09-02T14:21:23.918Z,4.33
2018-09-02T14:23:52.261Z,3.70
2018-09-02T14:26:21.108Z,3.67
2018-09-02T14:28:49.444Z,4.87
2018-09-02T14:31:17.838Z,4.50
2018-09-02T14:33:46.211Z,3.37
2018-09-02T14:36:14.504Z,3.50
2018-09-02T14:38:42.955Z,3.93
2018-09-02T14:41:11.341Z,3.27
2018-09-02T14:43:40.493Z,2.97
2018-09-02T14:46:09.230Z,3.63
2018-09-02T14:48:37.602Z,3.07
2018-09-02T14:51:05.959Z,3.60
2018-09-02T14:53:34.359Z,3.47
2018-09-02T14:56:02.739Z,4.35
2018-09-02T14:58:31.083Z,4.23
2018-09-02T15:00:59.453Z,3.03
2018-09-02T15:03:27.786Z,3.87
2018-09-02T15:05:56.272Z,3.40
2018-09-02T15:08:24.840Z,4.97
2018-09-02T15:10:53.155Z,3.20
2018-09-02T15:13:21.710Z,3.80
2018-09-02T15:15:50.039Z,3.30
2018-09-02T15:18:18.395Z,3.90
2018-09-02T15:20:46.738Z,2.90
2018-09-02T15:23:15.082Z,3.70
2018-09-02T15:25:43.506Z,3.30
2018-09-02T15:28:11.867Z,3.30
2018-09-02T15:30:40.285Z,3.63
2018-09-02T15:33:08.820Z,4.07
2018-09-02T15:35:37.228Z,4.30
2018-09-02T15:38:05.570Z,5.03
2018-09-02T15:40:33.868Z,3.37
2018-09-02T15:43:02.244Z,3.20
2018-09-02T15:45:30.626Z,3.13
2018-09-02T15:47:58.959Z,2.57
2018-09-02T15:50:27.255Z,3.00
2018-09-02T15:52:55.665Z,5.70
2018-09-02T15:55:23.966Z,3.52
2018-09-02T15:57:52.328Z,3.73
2018-09-02T16:00:20.718Z,4.83
2018-09-02T16:02:49.655Z,3.20
2018-09-02T16:05:18.827Z,4.77
2018-09-02T16:07:47.151Z,4.03
2018-09-02T16:10:15.476Z,4.07
2018-09-02T16:12:43.782Z,3.62
2018-09-02T16:15:12.350Z,4.33
2018-09-02T16:17:40.675Z,5.03
2018-09-02T16:20:09.130Z,3.40
2018-09-02T16:22:37.542Z,3.93
2018-09-02T16:25:06.075Z,3.15
2018-09-02T16:27:34.637Z,5.13
2018-09-02T16:30:03.261Z,4.67
2018-09-02T16:32:33.273Z,5.23
2018-09-02T16:35:02.167Z,5.50
2018-09-02T16:37:30.705Z,3.50
2018-09-02T16:39:59.070Z,3.47
2018-09-02T16:42:28.114Z,3.80
2018-09-02T16:44:56.435Z,3.40
2018-09-02T16:47:24.747Z,2.80
2018-09-02T16:49:53.123Z,6.20
2018-09-02T16:52:21.548Z,3.23
2018-09-02T16:54:49.989Z,3.50
2018-09-02T16:57:18.332Z,3.80
2018-09-02T16:59:46.670Z,3.33
2018-09-02T17:02:15.032Z,3.98
2018-09-02T17:04:45.388Z,3.60
2018-09-02T17:07:13.818Z,3.10
2018-09-02T17:09:42.291Z,4.50
2018-09-02T17:12:10.849Z,3.43
2018-09-02T17:14:39.034Z,3.43
2018-09-02T17:17:07.367Z,3.30
2018-09-02T17:19:38.319Z,4.83
2018-09-02T17:22:06.825Z,2.70
2018-09-02T17:24:35.278Z,6.80
2018-09-02T17:27:04.407Z,3.63
2018-09-02T17:29:32.683Z,3.22
2018-09-02T17:32:02.790Z,2.87
2018-09-02T17:34:32.002Z,3.17
2018-09-02T17:37:00.457Z,3.30
2018-09-02T17:39:28.921Z,2.63
2018-09-02T17:41:57.585Z,3.03
2018-09-02T17:44:25.974Z,3.53
2018-09-02T17:46:54.320Z,5.27
2018-09-02T17:49:23.384Z,3.17
2018-09-02T17:51:51.678Z,3.10
2018-09-02T17:54:20.093Z,2.52
2018-09-02T17:56:48.435Z,5.27
2018-09-02T17:59:16.785Z,2.60
2018-09-02T18:01:45.401Z,3.60
2018-09-02T18:04:13.834Z,2.70
2018-09-02T18:06:42.124Z,3.47
2018-09-02T18:09:11.712Z,2.40
2018-09-02T18:11:40.794Z,4.00
2018-09-02T18:14:09.322Z,3.80
2018-09-02T18:16:38.220Z,3.07
2018-09-02T18:19:06.967Z,4.10
2018-09-02T18:21:35.449Z,4.60
2018-09-02T18:24:03.931Z,4.03
2018-09-02T18:26:32.313Z,4.80
2018-09-02T18:29:00.946Z,4.33
2018-09-02T18:31:29.384Z,3.13
2018-09-02T18:33:57.750Z,4.60
2018-09-02T18:36:26.064Z,3.60
2018-09-02T18:38:54.551Z,4.23
2018-09-02T18:41:22.943Z,3.53
2018-09-02T18:43:51.567Z,3.23
2018-09-02T18:46:20.347Z,4.27
2018-09-02T18:48:48.794Z,3.30
2018-09-02T18:51:17.116Z,6.33
2018-09-02T18:53:45.472Z,3.63
2018-09-02T18:56:14.582Z,3.13
2018-09-02T18:58:43.279Z,4.10
2018-09-02T19:01:11.965Z,4.23
2018-09-02T19:03:40.337Z,3.30
2018-09-02T19:06:08.626Z,6.50
2018-09-02T19:08:37.300Z,4.47
2018-09-02T19:11:05.686Z,5.20
2018-09-02T19:13:34.380Z,3.73
2018-09-02T19:16:03.212Z,3.97
2018-09-02T19:18:31.777Z,3.90
2018-09-02T19:21:00.093Z,2.87
2018-09-02T19:23:28.963Z,4.80
2018-09-02T19:25:57.465Z,3.20
2018-09-02T19:28:26.285Z,4.70
2018-09-02T19:30:55.337Z,3.40
2018-09-02T19:33:23.696Z,3.07
2018-09-02T19:35:52.443Z,3.53
2018-09-02T19:38:20.829Z,5.30
2018-09-02T19:40:49.617Z,5.27
2018-09-02T19:43:18.024Z,3.63
2018-09-02T19:45:46.473Z,3.20
2018-09-02T19:48:14.961Z,2.63
2018-09-02T19:50:43.564Z,3.57
2018-09-02T19:53:11.992Z,4.53
2018-09-02T19:55:40.360Z,7.93
2018-09-02T19:58:08.885Z,3.67
2018-09-02T20:00:37.417Z,2.93
2018-09-02T20:03:06.085Z,3.83
2018-09-02T20:05:34.399Z,3.17
2018-09-02T20:08:02.897Z,3.93
2018-09-02T20:10:31.178Z,2.60
2018-09-02T20:12:59.476Z,3.03
2018-09-02T20:15:27.847Z,3.53
2018-09-02T20:17:56.286Z,3.67
2018-09-02T20:20:25.231Z,3.57
2018-09-02T20:22:53.609Z,3.17
2018-09-02T20:25:21.888Z,2.93
2018-09-02T20:27:50.368Z,2.93
2018-09-02T20:30:18.721Z,3.10
2018-09-02T20:32:47.048Z,3.70
2018-09-02T20:35:15.382Z,4.35
2018-09-02T20:37:43.755Z,3.07
2018-09-02T20:40:12.381Z,6.93
2018-09-02T20:42:40.873Z,4.70
2018-09-02T20:45:09.206Z,2.65
2018-09-02T20:47:37.777Z,3.43
2018-09-02T20:50:06.082Z,3.43
2018-09-02T20:52:34.488Z,4.10
2018-09-02T20:55:02.892Z,3.20
2018-09-02T20:57:31.349Z,3.43
2018-09-02T20:59:59.701Z,3.30
2018-09-02T21:02:28.180Z,3.67
2018-09-02T21:04:56.442Z,3.20
2018-09-02T21:07:24.725Z,3.23
2018-09-02T21:09:54.517Z,2.67
2018-09-02T21:12:22.937Z,4.50
2018-09-02T21:14:51.469Z,4.07
2018-09-02T21:17:19.754Z,3.17
2018-09-02T21:19:49.715Z,4.50
2018-09-02T21:22:18.317Z,2.80
2018-09-02T21:24:46.785Z,3.77
2018-09-02T21:27:15.293Z,5.33
2018-09-02T21:29:43.847Z,5.43
2018-09-02T21:32:12.237Z,4.75
2018-09-02T21:34:40.605Z,3.60
2018-09-02T21:37:09.191Z,3.17
2018-09-02T21:39:37.568Z,4.87
2018-09-02T21:42:05.977Z,3.23
2018-09-02T21:44:34.750Z,3.10
2018-09-02T21:47:03.309Z,2.90
2018-09-02T21:49:31.621Z,2.77
2018-09-02T21:51:59.969Z,4.53
2018-09-02T21:54:28.582Z,3.13
2018-09-02T21:56:57.910Z,3.97
2018-09-02T21:59:26.240Z,3.77
2018-09-02T22:01:54.650Z,3.10
2018-09-02T22:04:22.966Z,4.23
2018-09-02T22:06:51.389Z,3.53
2018-09-02T22:09:19.667Z,5.17
2018-09-02T22:11:48.037Z,4.33
2018-09-02T22:14:16.339Z,2.93
2018-09-02T22:16:45.454Z,3.97
2018-09-02T22:19:13.710Z,2.87
2018-09-02T22:21:42.178Z,2.63
2018-09-02T22:24:10.470Z,2.77
2018-09-02T22:26:38.916Z,2.87
2018-09-02T22:29:07.332Z,3.47
2018-09-02T22:31:35.680Z,5.13
2018-09-02T22:34:04.668Z,4.83
2018-09-02T22:36:33.059Z,3.83
2018-09-02T22:39:02.365Z,5.40
2018-09-02T22:41:30.850Z,2.97
2018-09-02T22:43:59.216Z,5.10
2018-09-02T22:46:28.310Z,3.73
2018-09-02T22:48:56.608Z,6.30
2018-09-02T22:51:25.293Z,3.80
2018-09-02T22:53:53.575Z,3.42
2018-09-02T22:56:21.939Z,4.40
2018-09-02T22:58:50.224Z,4.30
2018-09-02T23:01:19.340Z,4.03
2018-09-02T23:03:47.660Z,4.13
2018-09-02T23:06:16.188Z,4.50
2018-09-02T23:08:44.988Z,4.40
2018-09-02T23:11:13.261Z,4.13
2018-09-02T23:13:41.874Z,3.57
2018-09-02T23:16:10.164Z,4.17
2018-09-02T23:18:38.480Z,4.60
2018-09-02T23:21:06.968Z,3.73
2018-09-02T23:23:35.405Z,5.40
2018-09-02T23:26:04.980Z,3.72
2018-09-02T23:28:33.495Z,3.57
2018-09-02T23:31:01.893Z,4.00
2018-09-02T23:33:30.285Z,3.33
2018-09-02T23:35:58.788Z,3.30
2018-09-02T23:38:27.180Z,4.60
2018-09-02T23:40:55.458Z,4.23
2018-09-02T23:43:23.731Z,3.50
2018-09-02T23:45:52.695Z,3.50
2018-09-02T23:48:21.005Z,3.58
2018-09-02T23:50:49.299Z,7.10
2018-09-02T23:53:17.568Z,3.40
2018-09-02T23:55:46.056Z,4.37
2018-09-02T23:58:14.343Z,4.40
